sensor_id;sensor_type;location;lat;lon;timestamp;P1;durP1;ratioP1;P2;durP2;ratioP2
5987;SDS011;3021;51.000;6.980;2023-03-21T00:00:45;9.55;;;4.10;;
5987;SDS011;3021;51.000;6.980;2023-03-21T00:03:12;8.25;;;3.78;;
5987;SDS011;3021;51.000;6.980;2023-03-21T00:05:41;9.93;;;4.00;;
5987;SDS011;3021;51.000;6.980;2023-03-21T00:08:13;11.25;;;3.92;;
5987;SDS011;3021;51.000;6.980;2023-03-21T00:10:39;11.18;;;4.47;;
5987;SDS011;3021;51.000;6.980;2023-03-21T00:13:05;8.35;;;4.53;;
5987;SDS011;3021;51.000;6.980;2023-03-21T00:15:30;11.85;;;4.32;;
5987;SDS011;3021;51.000;6.980;2023-03-21T00:17:56;14.23;;;4.22;;
5987;SDS011;3021;51.000;6.980;2023-03-21T00:20:31;8.93;;;3.72;;
5987;SDS011;3021;51.000;6.980;2023-03-21T00:23:01;9.43;;;3.97;;
5987;SDS011;3021;51.000;6.980;2023-03-21T00:25:27;9.45;;;3.88;;
5987;SDS011;3021;51.000;6.980;2023-03-21T00:27:52;7.90;;;3.88;;
5987;SDS011;3021;51.000;6.980;2023-03-21T00:30:18;8.30;;;3.70;;
5987;SDS011;3021;51.000;6.980;2023-03-21T00:32:45;14.00;;;3.63;;
5987;SDS011;3021;51.000;6.980;2023-03-21T00:35:11;9.13;;;3.72;;
5987;SDS011;3021;51.000;6.980;2023-03-21T00:37:36;10.45;;;3.72;;
5987;SDS011;3021;51.000;6.980;2023-03-21T00:40:02;8.55;;;3.70;;
5987;SDS011;3021;51.000;6.980;2023-03-21T00:42:33;13.27;;;4.28;;
5987;SDS011;3021;51.000;6.980;2023-03-21T00:44:58;13.43;;;3.75;;
5987;SDS011;3021;51.000;6.980;2023-03-21T00:47:23;7.22;;;3.85;;
5987;SDS011;3021;51.000;6.980;2023-03-21T00:49:49;9.68;;;4.70;;
5987;SDS011;3021;51.000;6.980;2023-03-21T00:52:14;12.07;;;3.97;;
5987;SDS011;3021;51.000;6.980;2023-03-21T00:54:39;12.13;;;4.18;;
5987;SDS011;3021;51.000;6.980;2023-03-21T00:57:04;9.55;;;4.30;;
5987;SDS011;3021;51.000;6.980;2023-03-21T00:59:30;11.98;;;3.88;;
5987;SDS011;3021;51.000;6.980;2023-03-21T01:01:55;14.30;;;4.30;;
5987;SDS011;3021;51.000;6.980;2023-03-21T01:04:25;8.80;;;3.80;;
5987;SDS011;3021;51.000;6.980;2023-03-21T01:06:52;8.80;;;3.75;;
5987;SDS011;3021;51.000;6.980;2023-03-21T01:09:19;9.13;;;4.43;;
5987;SDS011;3021;51.000;6.980;2023-03-21T01:11:47;11.10;;;4.18;;
5987;SDS011;3021;51.000;6.980;2023-03-21T01:14:14;7.85;;;3.53;;
5987;SDS011;3021;51.000;6.980;2023-03-21T01:16:41;7.85;;;3.80;;
5987;SDS011;3021;51.000;6.980;2023-03-21T01:19:07;9.88;;;4.30;;
5987;SDS011;3021;51.000;6.980;2023-03-21T01:21:33;11.05;;;4.25;;
5987;SDS011;3021;51.000;6.980;2023-03-21T01:24:00;10.82;;;4.03;;
5987;SDS011;3021;51.000;6.980;2023-03-21T01:26:25;8.45;;;3.70;;
5987;SDS011;3021;51.000;6.980;2023-03-21T01:28:51;12.70;;;4.03;;
5987;SDS011;3021;51.000;6.980;2023-03-21T01:31:16;11.30;;;4.88;;
5987;SDS011;3021;51.000;6.980;2023-03-21T01:33:42;14.52;;;4.22;;
5987;SDS011;3021;51.000;6.980;2023-03-21T01:36:12;12.68;;;4.05;;
5987;SDS011;3021;51.000;6.980;2023-03-21T01:38:43;8.68;;;4.38;;
5987;SDS011;3021;51.000;6.980;2023-03-21T01:41:15;14.70;;;4.90;;
5987;SDS011;3021;51.000;6.980;2023-03-21T01:43:46;11.25;;;4.38;;
5987;SDS011;3021;51.000;6.980;2023-03-21T01:48:44;9.77;;;4.13;;
5987;SDS011;3021;51.000;6.980;2023-03-21T01:51:12;14.57;;;4.43;;
5987;SDS011;3021;51.000;6.980;2023-03-21T01:53:38;14.35;;;4.20;;
5987;SDS011;3021;51.000;6.980;2023-03-21T01:56:07;15.98;;;4.70;;
5987;SDS011;3021;51.000;6.980;2023-03-21T01:58:41;12.75;;;4.05;;
5987;SDS011;3021;51.000;6.980;2023-03-21T02:01:08;11.45;;;4.47;;
5987;SDS011;3021;51.000;6.980;2023-03-21T02:03:34;7.15;;;3.88;;
5987;SDS011;3021;51.000;6.980;2023-03-21T02:08:36;11.52;;;4.88;;
5987;SDS011;3021;51.000;6.980;2023-03-21T02:11:02;8.13;;;3.75;;
5987;SDS011;3021;51.000;6.980;2023-03-21T02:13:28;10.25;;;4.55;;
5987;SDS011;3021;51.000;6.980;2023-03-21T02:16:00;10.15;;;4.97;;
5987;SDS011;3021;51.000;6.980;2023-03-21T02:18:51;10.68;;;4.35;;
5987;SDS011;3021;51.000;6.980;2023-03-21T02:27:26;11.82;;;4.55;;
5987;SDS011;3021;51.000;6.980;2023-03-21T02:38:09;10.80;;;4.00;;
5987;SDS011;3021;51.000;6.980;2023-03-21T02:40:38;11.85;;;4.75;;
5987;SDS011;3021;51.000;6.980;2023-03-21T02:46:14;11.93;;;5.15;;
5987;SDS011;3021;51.000;6.980;2023-03-21T02:48:50;17.85;;;4.47;;
5987;SDS011;3021;51.000;6.980;2023-03-21T02:51:21;11.18;;;4.25;;
5987;SDS011;3021;51.000;6.980;2023-03-21T02:54:11;14.98;;;4.22;;
5987;SDS011;3021;51.000;6.980;2023-03-21T02:56:38;11.48;;;4.03;;
5987;SDS011;3021;51.000;6.980;2023-03-21T02:59:05;10.38;;;4.32;;
5987;SDS011;3021;51.000;6.980;2023-03-21T03:01:32;9.27;;;4.18;;
5987;SDS011;3021;51.000;6.980;2023-03-21T03:03:58;11.02;;;4.53;;
5987;SDS011;3021;51.000;6.980;2023-03-21T03:06:27;11.88;;;4.60;;
5987;SDS011;3021;51.000;6.980;2023-03-21T03:11:49;10.20;;;4.65;;
5987;SDS011;3021;51.000;6.980;2023-03-21T03:22:39;12.23;;;4.78;;
5987;SDS011;3021;51.000;6.980;2023-03-21T03:25:13;10.80;;;4.75;;
5987;SDS011;3021;51.000;6.980;2023-03-21T03:27:45;9.75;;;4.20;;
5987;SDS011;3021;51.000;6.980;2023-03-21T03:30:13;12.98;;;4.80;;
5987;SDS011;3021;51.000;6.980;2023-03-21T03:32:50;8.20;;;4.80;;
5987;SDS011;3021;51.000;6.980;2023-03-21T03:35:21;11.48;;;4.65;;
5987;SDS011;3021;51.000;6.980;2023-03-21T03:37:53;13.02;;;4.65;;
5987;SDS011;3021;51.000;6.980;2023-03-21T03:42:48;13.25;;;5.03;;
5987;SDS011;3021;51.000;6.980;2023-03-21T03:45:16;10.52;;;4.50;;
5987;SDS011;3021;51.000;6.980;2023-03-21T03:47:52;13.90;;;4.95;;
5987;SDS011;3021;51.000;6.980;2023-03-21T03:55:53;12.15;;;4.93;;
5987;SDS011;3021;51.000;6.980;2023-03-21T03:58:20;15.70;;;5.10;;
5987;SDS011;3021;51.000;6.980;2023-03-21T04:00:47;13.27;;;4.75;;
5987;SDS011;3021;51.000;6.980;2023-03-21T04:03:13;10.48;;;4.38;;
5987;SDS011;3021;51.000;6.980;2023-03-21T04:05:38;18.65;;;5.50;;
5987;SDS011;3021;51.000;6.980;2023-03-21T04:08:06;11.63;;;4.25;;
5987;SDS011;3021;51.000;6.980;2023-03-21T04:10:32;12.35;;;4.78;;
5987;SDS011;3021;51.000;6.980;2023-03-21T04:12:57;10.52;;;5.07;;
5987;SDS011;3021;51.000;6.980;2023-03-21T04:15:22;10.85;;;4.20;;
5987;SDS011;3021;51.000;6.980;2023-03-21T04:17:48;13.80;;;5.00;;
5987;SDS011;3021;51.000;6.980;2023-03-21T04:20:13;12.23;;;4.72;;
5987;SDS011;3021;51.000;6.980;2023-03-21T04:22:38;11.73;;;4.75;;
5987;SDS011;3021;51.000;6.980;2023-03-21T04:25:05;11.85;;;4.97;;
5987;SDS011;3021;51.000;6.980;2023-03-21T04:27:31;12.25;;;4.65;;
5987;SDS011;3021;51.000;6.980;2023-03-21T04:29:57;16.45;;;4.93;;
5987;SDS011;3021;51.000;6.980;2023-03-21T04:32:23;15.63;;;4.68;;
5987;SDS011;3021;51.000;6.980;2023-03-21T04:34:50;13.65;;;4.85;;
5987;SDS011;3021;51.000;6.980;2023-03-21T04:37:18;13.07;;;5.22;;
5987;SDS011;3021;51.000;6.980;2023-03-21T04:39:47;18.75;;;4.75;;
5987;SDS011;3021;51.000;6.980;2023-03-21T04:42:14;14.05;;;4.43;;
5987;SDS011;3021;51.000;6.980;2023-03-21T04:44:40;13.27;;;4.40;;
5987;SDS011;3021;51.000;6.980;2023-03-21T04:47:06;13.95;;;4.85;;
5987;SDS011;3021;51.000;6.980;2023-03-21T04:49:31;12.38;;;4.82;;
5987;SDS011;3021;51.000;6.980;2023-03-21T04:51:57;11.60;;;4.60;;
5987;SDS011;3021;51.000;6.980;2023-03-21T04:54:23;12.02;;;5.05;;
5987;SDS011;3021;51.000;6.980;2023-03-21T04:56:48;13.23;;;4.60;;
5987;SDS011;3021;51.000;6.980;2023-03-21T04:59:16;10.85;;;4.55;;
5987;SDS011;3021;51.000;6.980;2023-03-21T05:01:42;13.70;;;5.18;;
5987;SDS011;3021;51.000;6.980;2023-03-21T05:04:09;11.23;;;4.72;;
5987;SDS011;3021;51.000;6.980;2023-03-21T05:06:36;12.20;;;4.53;;
5987;SDS011;3021;51.000;6.980;2023-03-21T05:09:02;13.20;;;5.18;;
5987;SDS011;3021;51.000;6.980;2023-03-21T05:11:29;13.57;;;5.32;;
5987;SDS011;3021;51.000;6.980;2023-03-21T05:13:58;13.48;;;5.60;;
5987;SDS011;3021;51.000;6.980;2023-03-21T05:16:24;16.63;;;6.13;;
5987;SDS011;3021;51.000;6.980;2023-03-21T05:18:53;15.65;;;6.07;;
5987;SDS011;3021;51.000;6.980;2023-03-21T05:21:20;16.13;;;5.57;;
5987;SDS011;3021;51.000;6.980;2023-03-21T05:23:46;15.48;;;5.65;;
5987;SDS011;3021;51.000;6.980;2023-03-21T05:26:18;16.48;;;5.45;;
5987;SDS011;3021;51.000;6.980;2023-03-21T05:28:45;15.23;;;5.28;;
5987;SDS011;3021;51.000;6.980;2023-03-21T05:31:12;17.10;;;5.47;;
5987;SDS011;3021;51.000;6.980;2023-03-21T05:33:42;15.98;;;5.20;;
5987;SDS011;3021;51.000;6.980;2023-03-21T05:36:08;13.10;;;5.22;;
5987;SDS011;3021;51.000;6.980;2023-03-21T05:38:33;13.93;;;5.30;;
5987;SDS011;3021;51.000;6.980;2023-03-21T05:40:59;16.00;;;5.35;;
5987;SDS011;3021;51.000;6.980;2023-03-21T05:43:24;12.38;;;5.25;;
5987;SDS011;3021;51.000;6.980;2023-03-21T05:45:49;12.10;;;5.03;;
5987;SDS011;3021;51.000;6.980;2023-03-21T05:48:15;13.90;;;4.70;;
5987;SDS011;3021;51.000;6.980;2023-03-21T05:50:40;12.40;;;4.63;;
5987;SDS011;3021;51.000;6.980;2023-03-21T05:53:06;16.40;;;5.30;;
5987;SDS011;3021;51.000;6.980;2023-03-21T05:55:32;12.02;;;4.95;;
5987;SDS011;3021;51.000;6.980;2023-03-21T05:57:57;12.82;;;5.47;;
5987;SDS011;3021;51.000;6.980;2023-03-21T06:00:22;15.00;;;5.38;;
5987;SDS011;3021;51.000;6.980;2023-03-21T06:02:48;15.20;;;5.50;;
5987;SDS011;3021;51.000;6.980;2023-03-21T06:05:13;10.60;;;5.22;;
5987;SDS011;3021;51.000;6.980;2023-03-21T06:07:38;15.88;;;5.18;;
5987;SDS011;3021;51.000;6.980;2023-03-21T06:10:04;13.27;;;5.63;;
5987;SDS011;3021;51.000;6.980;2023-03-21T06:12:30;12.13;;;5.25;;
5987;SDS011;3021;51.000;6.980;2023-03-21T06:14:55;13.10;;;5.80;;
5987;SDS011;3021;51.000;6.980;2023-03-21T06:17:21;13.10;;;5.22;;
5987;SDS011;3021;51.000;6.980;2023-03-21T06:19:46;14.90;;;5.85;;
5987;SDS011;3021;51.000;6.980;2023-03-21T06:22:11;16.70;;;5.85;;
5987;SDS011;3021;51.000;6.980;2023-03-21T06:24:37;17.85;;;6.38;;
5987;SDS011;3021;51.000;6.980;2023-03-21T06:27:02;17.45;;;5.85;;
5987;SDS011;3021;51.000;6.980;2023-03-21T06:29:28;14.38;;;5.90;;
5987;SDS011;3021;51.000;6.980;2023-03-21T06:31:53;13.75;;;5.47;;
5987;SDS011;3021;51.000;6.980;2023-03-21T06:34:18;14.68;;;5.63;;
5987;SDS011;3021;51.000;6.980;2023-03-21T06:36:44;23.05;;;5.65;;
5987;SDS011;3021;51.000;6.980;2023-03-21T06:39:10;14.73;;;5.72;;
5987;SDS011;3021;51.000;6.980;2023-03-21T06:41:36;16.15;;;5.97;;
5987;SDS011;3021;51.000;6.980;2023-03-21T06:44:02;14.85;;;5.68;;
5987;SDS011;3021;51.000;6.980;2023-03-21T06:46:27;14.88;;;5.60;;
5987;SDS011;3021;51.000;6.980;2023-03-21T06:48:53;12.48;;;5.07;;
5987;SDS011;3021;51.000;6.980;2023-03-21T06:51:18;12.70;;;5.85;;
5987;SDS011;3021;51.000;6.980;2023-03-21T06:53:43;13.98;;;5.40;;
5987;SDS011;3021;51.000;6.980;2023-03-21T06:56:10;14.25;;;5.80;;
5987;SDS011;3021;51.000;6.980;2023-03-21T06:58:36;11.63;;;5.30;;
5987;SDS011;3021;51.000;6.980;2023-03-21T07:01:02;16.05;;;6.80;;
5987;SDS011;3021;51.000;6.980;2023-03-21T07:03:28;17.60;;;5.22;;
5987;SDS011;3021;51.000;6.980;2023-03-21T07:05:55;14.07;;;5.68;;
5987;SDS011;3021;51.000;6.980;2023-03-21T07:08:22;13.38;;;5.60;;
5987;SDS011;3021;51.000;6.980;2023-03-21T07:10:47;13.75;;;5.70;;
5987;SDS011;3021;51.000;6.980;2023-03-21T07:13:13;16.10;;;6.30;;
5987;SDS011;3021;51.000;6.980;2023-03-21T07:15:39;14.55;;;5.43;;
5987;SDS011;3021;51.000;6.980;2023-03-21T07:18:06;18.10;;;6.38;;
5987;SDS011;3021;51.000;6.980;2023-03-21T07:20:33;16.10;;;5.63;;
5987;SDS011;3021;51.000;6.980;2023-03-21T07:22:59;16.85;;;6.55;;
5987;SDS011;3021;51.000;6.980;2023-03-21T07:25:25;17.65;;;6.72;;
5987;SDS011;3021;51.000;6.980;2023-03-21T07:27:51;17.88;;;6.85;;
5987;SDS011;3021;51.000;6.980;2023-03-21T07:30:16;24.42;;;7.40;;
5987;SDS011;3021;51.000;6.980;2023-03-21T07:32:42;20.70;;;7.15;;
5987;SDS011;3021;51.000;6.980;2023-03-21T07:35:10;17.52;;;7.28;;
5987;SDS011;3021;51.000;6.980;2023-03-21T07:37:37;20.75;;;7.32;;
5987;SDS011;3021;51.000;6.980;2023-03-21T07:40:03;17.98;;;7.97;;
5987;SDS011;3021;51.000;6.980;2023-03-21T07:42:36;23.08;;;8.38;;
5987;SDS011;3021;51.000;6.980;2023-03-21T07:45:02;21.23;;;7.57;;
5987;SDS011;3021;51.000;6.980;2023-03-21T07:47:29;21.95;;;8.23;;
5987;SDS011;3021;51.000;6.980;2023-03-21T07:49:55;20.67;;;8.05;;
5987;SDS011;3021;51.000;6.980;2023-03-21T07:52:20;21.20;;;8.02;;
5987;SDS011;3021;51.000;6.980;2023-03-21T07:54:46;19.92;;;8.27;;
5987;SDS011;3021;51.000;6.980;2023-03-21T07:57:11;20.52;;;8.60;;
5987;SDS011;3021;51.000;6.980;2023-03-21T07:59:36;24.17;;;9.25;;
5987;SDS011;3021;51.000;6.980;2023-03-21T08:02:02;22.15;;;9.95;;
5987;SDS011;3021;51.000;6.980;2023-03-21T08:04:27;20.85;;;8.88;;
5987;SDS011;3021;51.000;6.980;2023-03-21T08:06:52;24.85;;;10.20;;
5987;SDS011;3021;51.000;6.980;2023-03-21T08:09:18;22.65;;;9.27;;
5987;SDS011;3021;51.000;6.980;2023-03-21T08:11:44;24.75;;;9.68;;
5987;SDS011;3021;51.000;6.980;2023-03-21T08:14:09;20.85;;;9.10;;
5987;SDS011;3021;51.000;6.980;2023-03-21T08:16:34;24.33;;;8.82;;
5987;SDS011;3021;51.000;6.980;2023-03-21T08:19:00;21.88;;;9.40;;
5987;SDS011;3021;51.000;6.980;2023-03-21T08:21:26;23.45;;;8.75;;
5987;SDS011;3021;51.000;6.980;2023-03-21T08:23:51;19.10;;;9.23;;
5987;SDS011;3021;51.000;6.980;2023-03-21T08:26:17;23.30;;;9.73;;
5987;SDS011;3021;51.000;6.980;2023-03-21T08:28:43;25.88;;;10.48;;
5987;SDS011;3021;51.000;6.980;2023-03-21T08:31:09;21.00;;;10.45;;
5987;SDS011;3021;51.000;6.980;2023-03-21T08:33:36;17.88;;;9.73;;
5987;SDS011;3021;51.000;6.980;2023-03-21T08:36:02;25.30;;;11.15;;
5987;SDS011;3021;51.000;6.980;2023-03-21T08:38:28;23.42;;;11.68;;
5987;SDS011;3021;51.000;6.980;2023-03-21T08:40:57;26.75;;;11.43;;
5987;SDS011;3021;51.000;6.980;2023-03-21T08:43:24;31.20;;;12.05;;
5987;SDS011;3021;51.000;6.980;2023-03-21T08:45:50;31.92;;;13.45;;
5987;SDS011;3021;51.000;6.980;2023-03-21T08:48:15;26.95;;;10.07;;
5987;SDS011;3021;51.000;6.980;2023-03-21T08:50:40;27.27;;;9.88;;
5987;SDS011;3021;51.000;6.980;2023-03-21T08:53:06;24.42;;;10.00;;
5987;SDS011;3021;51.000;6.980;2023-03-21T08:55:31;24.55;;;10.05;;
5987;SDS011;3021;51.000;6.980;2023-03-21T08:57:57;22.23;;;11.10;;
5987;SDS011;3021;51.000;6.980;2023-03-21T09:00:23;18.63;;;9.98;;
5987;SDS011;3021;51.000;6.980;2023-03-21T09:02:49;22.05;;;9.80;;
5987;SDS011;3021;51.000;6.980;2023-03-21T09:05:16;25.92;;;10.80;;
5987;SDS011;3021;51.000;6.980;2023-03-21T09:07:42;20.42;;;9.75;;
5987;SDS011;3021;51.000;6.980;2023-03-21T09:10:09;24.10;;;9.70;;
5987;SDS011;3021;51.000;6.980;2023-03-21T09:12:37;19.20;;;8.95;;
5987;SDS011;3021;51.000;6.980;2023-03-21T09:15:03;25.52;;;11.07;;
5987;SDS011;3021;51.000;6.980;2023-03-21T09:17:29;20.73;;;9.35;;
5987;SDS011;3021;51.000;6.980;2023-03-21T09:19:56;22.80;;;8.43;;
5987;SDS011;3021;51.000;6.980;2023-03-21T09:22:24;21.00;;;8.27;;
5987;SDS011;3021;51.000;6.980;2023-03-21T09:24:51;17.30;;;8.20;;
5987;SDS011;3021;51.000;6.980;2023-03-21T09:27:17;19.83;;;8.88;;
5987;SDS011;3021;51.000;6.980;2023-03-21T09:29:45;25.98;;;9.35;;
5987;SDS011;3021;51.000;6.980;2023-03-21T09:32:10;19.88;;;8.63;;
5987;SDS011;3021;51.000;6.980;2023-03-21T09:34:37;18.35;;;8.68;;
5987;SDS011;3021;51.000;6.980;2023-03-21T09:37:05;26.08;;;9.43;;
5987;SDS011;3021;51.000;6.980;2023-03-21T09:39:36;20.27;;;9.38;;
5987;SDS011;3021;51.000;6.980;2023-03-21T09:47:41;19.38;;;8.90;;
5987;SDS011;3021;51.000;6.980;2023-03-21T09:50:30;17.13;;;8.30;;
5987;SDS011;3021;51.000;6.980;2023-03-21T09:55:51;19.23;;;8.43;;
5987;SDS011;3021;51.000;6.980;2023-03-21T10:00:56;17.05;;;9.15;;
5987;SDS011;3021;51.000;6.980;2023-03-21T10:03:29;20.23;;;8.85;;
5987;SDS011;3021;51.000;6.980;2023-03-21T10:05:59;19.90;;;9.98;;
5987;SDS011;3021;51.000;6.980;2023-03-21T10:08:35;21.95;;;9.02;;
5987;SDS011;3021;51.000;6.980;2023-03-21T10:11:18;18.25;;;8.30;;
5987;SDS011;3021;51.000;6.980;2023-03-21T10:16:33;19.75;;;8.05;;
5987;SDS011;3021;51.000;6.980;2023-03-21T10:19:12;18.08;;;8.32;;
5987;SDS011;3021;51.000;6.980;2023-03-21T10:21:40;21.85;;;8.90;;
5987;SDS011;3021;51.000;6.980;2023-03-21T10:24:19;23.58;;;8.48;;
5987;SDS011;3021;51.000;6.980;2023-03-21T10:26:47;13.15;;;7.43;;
5987;SDS011;3021;51.000;6.980;2023-03-21T10:29:14;19.50;;;8.45;;
5987;SDS011;3021;51.000;6.980;2023-03-21T10:31:43;23.65;;;9.05;;
5987;SDS011;3021;51.000;6.980;2023-03-21T10:34:17;17.70;;;8.90;;
5987;SDS011;3021;51.000;6.980;2023-03-21T10:36:48;22.85;;;9.38;;
5987;SDS011;3021;51.000;6.980;2023-03-21T10:39:17;17.85;;;8.70;;
5987;SDS011;3021;51.000;6.980;2023-03-21T10:41:58;23.27;;;9.88;;
5987;SDS011;3021;51.000;6.980;2023-03-21T10:44:33;20.02;;;9.75;;
5987;SDS011;3021;51.000;6.980;2023-03-21T10:47:06;18.95;;;8.43;;
5987;SDS011;3021;51.000;6.980;2023-03-21T10:49:34;17.15;;;8.60;;
5987;SDS011;3021;51.000;6.980;2023-03-21T10:52:02;15.13;;;7.90;;
5987;SDS011;3021;51.000;6.980;2023-03-21T10:54:32;14.48;;;8.25;;
5987;SDS011;3021;51.000;6.980;2023-03-21T10:57:02;17.73;;;7.70;;
5987;SDS011;3021;51.000;6.980;2023-03-21T10:59:43;15.52;;;7.53;;
5987;SDS011;3021;51.000;6.980;2023-03-21T11:02:38;17.50;;;7.40;;
5987;SDS011;3021;51.000;6.980;2023-03-21T11:05:06;12.30;;;6.72;;
5987;SDS011;3021;51.000;6.980;2023-03-21T11:07:41;11.82;;;6.63;;
5987;SDS011;3021;51.000;6.980;2023-03-21T11:10:25;13.77;;;6.47;;
5987;SDS011;3021;51.000;6.980;2023-03-21T11:12:55;13.68;;;6.72;;
5987;SDS011;3021;51.000;6.980;2023-03-21T11:18:31;15.30;;;6.60;;
5987;SDS011;3021;51.000;6.980;2023-03-21T11:21:06;17.88;;;6.65;;
5987;SDS011;3021;51.000;6.980;2023-03-21T11:23:34;17.48;;;6.55;;
5987;SDS011;3021;51.000;6.980;2023-03-21T11:26:07;14.70;;;6.45;;
5987;SDS011;3021;51.000;6.980;2023-03-21T11:28:36;18.83;;;6.53;;
5987;SDS011;3021;51.000;6.980;2023-03-21T11:31:05;18.90;;;6.20;;
5987;SDS011;3021;51.000;6.980;2023-03-21T11:33:37;14.57;;;6.88;;
5987;SDS011;3021;51.000;6.980;2023-03-21T11:38:58;14.40;;;6.47;;
5987;SDS011;3021;51.000;6.980;2023-03-21T11:41:28;12.45;;;5.80;;
5987;SDS011;3021;51.000;6.980;2023-03-21T11:43:55;13.95;;;6.22;;
5987;SDS011;3021;51.000;6.980;2023-03-21T11:46:29;10.85;;;5.38;;
5987;SDS011;3021;51.000;6.980;2023-03-21T11:48:55;13.75;;;5.95;;
5987;SDS011;3021;51.000;6.980;2023-03-21T11:56:55;10.63;;;6.22;;
5987;SDS011;3021;51.000;6.980;2023-03-21T11:59:34;10.15;;;5.78;;
5987;SDS011;3021;51.000;6.980;2023-03-21T12:04:55;25.48;;;6.85;;
5987;SDS011;3021;51.000;6.980;2023-03-21T12:10:26;15.00;;;6.45;;
5987;SDS011;3021;51.000;6.980;2023-03-21T12:20:38;15.70;;;6.50;;
5987;SDS011;3021;51.000;6.980;2023-03-21T12:38:56;13.57;;;6.88;;
5987;SDS011;3021;51.000;6.980;2023-03-21T12:44:09;13.05;;;7.05;;
5987;SDS011;3021;51.000;6.980;2023-03-21T12:46:40;12.77;;;6.90;;
5987;SDS011;3021;51.000;6.980;2023-03-21T12:49:21;17.75;;;7.95;;
5987;SDS011;3021;51.000;6.980;2023-03-21T12:57:38;17.27;;;7.18;;
5987;SDS011;3021;51.000;6.980;2023-03-21T13:00:20;13.48;;;6.65;;
5987;SDS011;3021;51.000;6.980;2023-03-21T13:02:53;10.70;;;6.10;;
5987;SDS011;3021;51.000;6.980;2023-03-21T13:05:39;11.48;;;6.05;;
5987;SDS011;3021;51.000;6.980;2023-03-21T13:11:11;10.57;;;6.40;;
5987;SDS011;3021;51.000;6.980;2023-03-21T13:24:59;11.10;;;5.18;;
5987;SDS011;3021;51.000;6.980;2023-03-21T13:29:59;10.00;;;5.60;;
5987;SDS011;3021;51.000;6.980;2023-03-21T13:32:33;11.45;;;4.82;;
5987;SDS011;3021;51.000;6.980;2023-03-21T13:40:42;10.90;;;5.55;;
5987;SDS011;3021;51.000;6.980;2023-03-21T13:51:49;11.25;;;5.25;;
5987;SDS011;3021;51.000;6.980;2023-03-21T13:57:06;9.80;;;4.95;;
5987;SDS011;3021;51.000;6.980;2023-03-21T14:00:16;10.52;;;4.50;;
5987;SDS011;3021;51.000;6.980;2023-03-21T14:03:07;8.73;;;4.30;;
5987;SDS011;3021;51.000;6.980;2023-03-21T14:05:36;10.55;;;4.85;;
5987;SDS011;3021;51.000;6.980;2023-03-21T14:08:04;8.52;;;4.38;;
5987;SDS011;3021;51.000;6.980;2023-03-21T14:10:36;9.05;;;5.18;;
5987;SDS011;3021;51.000;6.980;2023-03-21T14:13:04;11.77;;;5.80;;
5987;SDS011;3021;51.000;6.980;2023-03-21T14:15:39;10.20;;;4.60;;
5987;SDS011;3021;51.000;6.980;2023-03-21T14:18:12;11.32;;;5.47;;
5987;SDS011;3021;51.000;6.980;2023-03-21T14:20:40;10.82;;;4.70;;
5987;SDS011;3021;51.000;6.980;2023-03-21T14:23:07;8.45;;;4.88;;
5987;SDS011;3021;51.000;6.980;2023-03-21T14:25:37;9.52;;;4.57;;
5987;SDS011;3021;51.000;6.980;2023-03-21T14:28:05;9.88;;;5.15;;
5987;SDS011;3021;51.000;6.980;2023-03-21T14:30:38;12.15;;;5.00;;
5987;SDS011;3021;51.000;6.980;2023-03-21T14:35:54;7.68;;;4.47;;
5987;SDS011;3021;51.000;6.980;2023-03-21T14:38:23;8.93;;;5.10;;
5987;SDS011;3021;51.000;6.980;2023-03-21T14:40:54;10.18;;;5.28;;
5987;SDS011;3021;51.000;6.980;2023-03-21T14:43:21;11.18;;;4.85;;
5987;SDS011;3021;51.000;6.980;2023-03-21T14:45:49;8.77;;;4.55;;
5987;SDS011;3021;51.000;6.980;2023-03-21T14:48:18;7.93;;;5.10;;
5987;SDS011;3021;51.000;6.980;2023-03-21T14:50:52;10.52;;;4.80;;
5987;SDS011;3021;51.000;6.980;2023-03-21T14:53:29;8.85;;;4.35;;
5987;SDS011;3021;51.000;6.980;2023-03-21T14:56:05;11.50;;;5.13;;
5987;SDS011;3021;51.000;6.980;2023-03-21T14:58:36;10.23;;;4.75;;
5987;SDS011;3021;51.000;6.980;2023-03-21T15:01:05;7.35;;;4.65;;
5987;SDS011;3021;51.000;6.980;2023-03-21T15:03:32;7.80;;;5.03;;
5987;SDS011;3021;51.000;6.980;2023-03-21T15:05:58;9.10;;;4.85;;
5987;SDS011;3021;51.000;6.980;2023-03-21T15:08:27;9.95;;;4.82;;
5987;SDS011;3021;51.000;6.980;2023-03-21T15:10:57;9.25;;;4.72;;
5987;SDS011;3021;51.000;6.980;2023-03-21T15:13:30;9.15;;;4.80;;
5987;SDS011;3021;51.000;6.980;2023-03-21T15:15:59;8.07;;;4.25;;
5987;SDS011;3021;51.000;6.980;2023-03-21T15:18:29;8.57;;;4.03;;
5987;SDS011;3021;51.000;6.980;2023-03-21T15:20:57;7.00;;;4.10;;
5987;SDS011;3021;51.000;6.980;2023-03-21T15:25:55;10.93;;;3.88;;
5987;SDS011;3021;51.000;6.980;2023-03-21T15:28:21;9.95;;;4.28;;
5987;SDS011;3021;51.000;6.980;2023-03-21T15:30:49;8.23;;;4.53;;
5987;SDS011;3021;51.000;6.980;2023-03-21T15:33:16;6.68;;;3.70;;
5987;SDS011;3021;51.000;6.980;2023-03-21T15:35:43;9.32;;;4.25;;
5987;SDS011;3021;51.000;6.980;2023-03-21T15:43:43;8.80;;;3.72;;
5987;SDS011;3021;51.000;6.980;2023-03-21T15:46:16;9.18;;;4.93;;
5987;SDS011;3021;51.000;6.980;2023-03-21T15:51:52;9.07;;;4.20;;
5987;SDS011;3021;51.000;6.980;2023-03-21T15:54:23;9.13;;;4.35;;
5987;SDS011;3021;51.000;6.980;2023-03-21T15:56:55;10.73;;;3.85;;
5987;SDS011;3021;51.000;6.980;2023-03-21T15:59:26;6.43;;;3.65;;
5987;SDS011;3021;51.000;6.980;2023-03-21T16:01:54;7.03;;;4.15;;
5987;SDS011;3021;51.000;6.980;2023-03-21T16:04:19;7.95;;;4.00;;
5987;SDS011;3021;51.000;6.980;2023-03-21T16:07:18;7.90;;;4.10;;
5987;SDS011;3021;51.000;6.980;2023-03-21T16:09:42;8.27;;;4.30;;
5987;SDS011;3021;51.000;6.980;2023-03-21T16:12:10;9.80;;;4.10;;
5987;SDS011;3021;51.000;6.980;2023-03-21T16:14:37;6.65;;;3.95;;
5987;SDS011;3021;51.000;6.980;2023-03-21T16:17:12;6.93;;;4.18;;
5987;SDS011;3021;51.000;6.980;2023-03-21T16:20:00;11.43;;;4.20;;
5987;SDS011;3021;51.000;6.980;2023-03-21T16:22:25;8.85;;;4.30;;
5987;SDS011;3021;51.000;6.980;2023-03-21T16:24:58;8.10;;;4.15;;
5987;SDS011;3021;51.000;6.980;2023-03-21T16:27:24;8.82;;;3.95;;
5987;SDS011;3021;51.000;6.980;2023-03-21T16:29:50;9.88;;;4.70;;
5987;SDS011;3021;51.000;6.980;2023-03-21T16:32:16;7.65;;;4.20;;
5987;SDS011;3021;51.000;6.980;2023-03-21T16:34:42;12.13;;;4.72;;
5987;SDS011;3021;51.000;6.980;2023-03-21T16:37:10;10.48;;;4.65;;
5987;SDS011;3021;51.000;6.980;2023-03-21T16:39:36;9.20;;;4.85;;
5987;SDS011;3021;51.000;6.980;2023-03-21T16:42:02;13.52;;;5.03;;
5987;SDS011;3021;51.000;6.980;2023-03-21T16:44:27;12.65;;;5.20;;
5987;SDS011;3021;51.000;6.980;2023-03-21T16:46:53;10.63;;;6.22;;
5987;SDS011;3021;51.000;6.980;2023-03-21T16:49:19;12.43;;;6.70;;
5987;SDS011;3021;51.000;6.980;2023-03-21T16:51:48;12.73;;;6.38;;
5987;SDS011;3021;51.000;6.980;2023-03-21T16:54:14;8.68;;;5.53;;
5987;SDS011;3021;51.000;6.980;2023-03-21T16:56:46;10.30;;;5.10;;
5987;SDS011;3021;51.000;6.980;2023-03-21T16:59:16;9.70;;;5.22;;
5987;SDS011;3021;51.000;6.980;2023-03-21T17:01:42;7.22;;;4.25;;
5987;SDS011;3021;51.000;6.980;2023-03-21T17:04:10;7.82;;;4.47;;
5987;SDS011;3021;51.000;6.980;2023-03-21T17:06:39;7.45;;;4.00;;
5987;SDS011;3021;51.000;6.980;2023-03-21T17:09:12;7.75;;;3.90;;
5987;SDS011;3021;51.000;6.980;2023-03-21T17:11:38;8.10;;;3.97;;
5987;SDS011;3021;51.000;6.980;2023-03-21T17:14:05;6.78;;;4.20;;
5987;SDS011;3021;51.000;6.980;2023-03-21T17:16:32;6.30;;;3.80;;
5987;SDS011;3021;51.000;6.980;2023-03-21T17:18:57;10.30;;;4.63;;
5987;SDS011;3021;51.000;6.980;2023-03-21T17:21:24;8.52;;;4.60;;
5987;SDS011;3021;51.000;6.980;2023-03-21T17:23:52;6.43;;;4.25;;
5987;SDS011;3021;51.000;6.980;2023-03-21T17:26:23;8.40;;;4.63;;
5987;SDS011;3021;51.000;6.980;2023-03-21T17:28:50;9.23;;;4.90;;
5987;SDS011;3021;51.000;6.980;2023-03-21T17:31:16;7.32;;;4.55;;
5987;SDS011;3021;51.000;6.980;2023-03-21T17:33:44;7.35;;;4.43;;
5987;SDS011;3021;51.000;6.980;2023-03-21T17:36:11;12.07;;;4.85;;
5987;SDS011;3021;51.000;6.980;2023-03-21T17:38:40;9.02;;;4.57;;
5987;SDS011;3021;51.000;6.980;2023-03-21T17:41:07;10.32;;;4.18;;
5987;SDS011;3021;51.000;6.980;2023-03-21T17:43:35;7.57;;;4.25;;
5987;SDS011;3021;51.000;6.980;2023-03-21T17:46:00;12.23;;;4.63;;